createdAt,value
2023-05-06T00:07:03.277Z,12.00
2023-05-06T00:22:06.191Z,11.90
2023-05-06T00:37:08.733Z,11.80
2023-05-06T00:52:11.697Z,11.77
2023-05-06T01:07:20.690Z,11.83
2023-05-06T01:22:26.165Z,11.91
2023-05-06T01:37:35.067Z,11.97
2023-05-06T01:52:37.763Z,11.98
2023-05-06T02:07:40.335Z,11.95
2023-05-06T02:22:43.584Z,11.96
2023-05-06T02:37:46.165Z,11.93
2023-05-06T02:52:48.981Z,11.89
2023-05-06T03:07:51.723Z,11.86
2023-05-06T03:22:55.568Z,11.78
2023-05-06T03:37:58.348Z,11.82
2023-05-06T03:53:01.017Z,11.78
2023-05-06T04:08:03.748Z,11.68
2023-05-06T04:23:06.985Z,11.52
2023-05-06T04:38:09.873Z,11.34
2023-05-06T04:53:12.864Z,11.50
2023-05-06T05:08:15.463Z,11.46
2023-05-06T05:23:18.313Z,11.50
2023-05-06T05:38:21.067Z,11.47
2023-05-06T05:53:23.847Z,11.46
2023-05-06T06:08:26.848Z,11.45
2023-05-06T06:23:29.784Z,11.35
2023-05-06T06:38:33.493Z,11.43
2023-05-06T06:53:36.183Z,11.38
2023-05-06T07:08:38.841Z,11.22
2023-05-06T07:23:41.607Z,11.17
2023-05-06T07:38:44.304Z,11.10
2023-05-06T07:53:46.975Z,11.52
2023-05-06T08:08:49.571Z,11.60
2023-05-06T08:23:52.855Z,11.96
2023-05-06T08:38:55.620Z,12.70
2023-05-06T08:54:02.472Z,12.94
2023-05-06T09:09:05.787Z,13.99
2023-05-06T09:24:10.139Z,12.63
2023-05-06T09:39:12.733Z,12.11
2023-05-06T09:54:17.423Z,12.60
2023-05-06T10:09:23.697Z,12.58
2023-05-06T10:24:34.519Z,12.26
2023-05-06T10:39:37.532Z,12.15
2023-05-06T10:54:51.599Z,12.27
2023-05-06T11:09:59.601Z,12.28
2023-05-06T11:25:06.518Z,12.50
2023-05-06T11:40:15.792Z,12.62
2023-05-06T11:55:18.680Z,12.87
2023-05-06T12:10:21.630Z,13.27
2023-05-06T12:25:24.465Z,13.40
2023-05-06T12:40:27.649Z,13.69
2023-05-06T12:55:32.201Z,13.62
2023-05-06T13:10:34.837Z,13.83
2023-05-06T13:25:47.974Z,13.87
2023-05-06T13:40:58.916Z,13.68
2023-05-06T13:56:01.916Z,13.77
2023-05-06T14:11:04.999Z,13.82
2023-05-06T14:26:08.032Z,14.22
2023-05-06T14:41:10.816Z,14.40
2023-05-06T14:56:13.435Z,14.25
2023-05-06T15:11:16.043Z,14.48
2023-05-06T15:26:18.810Z,14.00
2023-05-06T15:41:24.775Z,13.45
2023-05-06T15:56:27.385Z,13.13
2023-05-06T16:11:30.218Z,13.15
2023-05-06T16:26:34.612Z,13.39
2023-05-06T16:41:37.766Z,12.81
2023-05-06T16:56:51.505Z,13.06
2023-05-06T17:11:55.370Z,12.95
2023-05-06T17:26:58.331Z,12.83
2023-05-06T17:42:01.818Z,12.50
2023-05-06T17:57:04.511Z,12.29
2023-05-06T18:12:07.595Z,12.11
2023-05-06T18:27:10.199Z,12.07
2023-05-06T18:42:12.839Z,12.06
2023-05-06T18:57:15.489Z,12.18
2023-05-06T19:12:18.393Z,12.09
2023-05-06T19:27:21.292Z,12.21
2023-05-06T19:42:24.223Z,12.13
2023-05-06T19:57:27.676Z,12.03
2023-05-06T20:12:30.683Z,11.68
2023-05-06T20:27:33.357Z,11.42
2023-05-06T20:42:36.536Z,11.59
2023-05-06T20:57:43.778Z,11.41
2023-05-06T21:12:47.725Z,11.40
2023-05-06T21:27:50.707Z,11.35
2023-05-06T21:42:53.357Z,11.22
2023-05-06T21:57:56.365Z,11.38
2023-05-06T22:12:58.983Z,11.29
2023-05-06T22:28:02.266Z,11.31
2023-05-06T22:43:05.016Z,11.24
2023-05-06T22:58:07.736Z,11.16
2023-05-06T23:13:10.600Z,10.59
2023-05-06T23:28:13.547Z,10.89
2023-05-06T23:43:16.151Z,11.11
2023-05-06T23:58:18.904Z,10.50
